createdAt,value
2017-10-08T00:02:24.225Z,7.03
2017-10-08T00:04:51.866Z,7.67
2017-10-08T00:07:19.474Z,7.70
2017-10-08T00:09:47.089Z,7.17
2017-10-08T00:12:14.711Z,7.40
2017-10-08T00:14:42.403Z,7.63
2017-10-08T00:17:10.008Z,7.20
2017-10-08T00:19:37.742Z,6.27
2017-10-08T00:22:05.342Z,8.17
2017-10-08T00:24:33.006Z,7.57
2017-10-08T00:27:00.610Z,7.93
2017-10-08T00:29:28.278Z,7.70
2017-10-08T00:31:55.910Z,7.83
2017-10-08T00:34:23.550Z,6.60
2017-10-08T00:36:51.260Z,8.20
2017-10-08T00:39:18.885Z,7.47
2017-10-08T00:41:46.533Z,8.40
2017-10-08T00:44:14.134Z,8.60
2017-10-08T00:46:41.758Z,8.60
2017-10-08T00:49:09.349Z,8.33
2017-10-08T00:51:36.992Z,8.40
2017-10-08T00:54:04.615Z,9.10
2017-10-08T00:56:32.253Z,8.73
2017-10-08T00:58:59.846Z,7.90
2017-10-08T01:01:27.459Z,8.63
2017-10-08T01:03:55.063Z,6.87
2017-10-08T01:06:22.707Z,6.77
2017-10-08T01:08:50.324Z,6.63
2017-10-08T01:11:17.962Z,9.03
2017-10-08T01:13:45.582Z,7.50
2017-10-08T01:16:13.225Z,7.87
2017-10-08T01:18:40.827Z,7.90
2017-10-08T01:21:08.425Z,8.40
2017-10-08T01:23:36.057Z,9.10
2017-10-08T01:26:03.675Z,8.80
2017-10-08T01:28:31.254Z,8.20
2017-10-08T01:30:58.934Z,7.60
2017-10-08T01:33:26.523Z,8.40
2017-10-08T01:35:54.169Z,9.03
2017-10-08T01:38:21.766Z,9.33
2017-10-08T01:40:49.472Z,8.40
2017-10-08T01:43:17.066Z,9.30
2017-10-08T01:45:44.697Z,9.10
2017-10-08T01:48:12.302Z,9.27
2017-10-08T01:50:39.927Z,10.77
2017-10-08T01:53:07.558Z,10.87
2017-10-08T01:55:35.270Z,10.80
2017-10-08T01:58:02.897Z,10.63
2017-10-08T02:00:30.519Z,10.33
2017-10-08T02:02:58.171Z,9.97
2017-10-08T02:05:25.989Z,11.57
2017-10-08T02:07:53.627Z,11.10
2017-10-08T02:10:21.250Z,11.57
2017-10-08T02:12:49.683Z,11.30
2017-10-08T02:15:17.331Z,12.30
2017-10-08T02:17:44.997Z,11.80
2017-10-08T02:20:12.617Z,11.83
2017-10-08T02:22:40.275Z,10.40
2017-10-08T02:25:07.880Z,9.97
2017-10-08T02:27:35.535Z,11.47
2017-10-08T02:30:03.163Z,11.20
2017-10-08T02:32:30.809Z,12.70
2017-10-08T02:34:58.430Z,11.70
2017-10-08T02:37:26.098Z,10.57
2017-10-08T02:39:53.704Z,12.40
2017-10-08T02:42:21.400Z,12.10
2017-10-08T02:44:49.010Z,10.70
2017-10-08T02:47:16.636Z,9.53
2017-10-08T02:49:44.252Z,11.97
2017-10-08T02:52:11.987Z,10.87
2017-10-08T02:54:39.614Z,11.27
2017-10-08T02:57:07.446Z,10.93
2017-10-08T02:59:35.067Z,10.23
2017-10-08T03:02:02.703Z,8.40
2017-10-08T03:04:30.382Z,10.47
2017-10-08T03:06:58.038Z,10.30
2017-10-08T03:09:25.707Z,10.10
2017-10-08T03:11:53.337Z,11.20
2017-10-08T03:14:21.033Z,9.90
2017-10-08T03:16:48.775Z,9.33
2017-10-08T03:19:16.385Z,10.30
2017-10-08T03:21:44.022Z,9.53
2017-10-08T03:24:11.669Z,10.73
2017-10-08T03:26:39.308Z,10.13
2017-10-08T03:29:06.944Z,9.63
2017-10-08T03:31:34.549Z,9.07
2017-10-08T03:34:02.218Z,10.20
2017-10-08T03:36:29.883Z,9.93
2017-10-08T03:38:57.481Z,9.13
2017-10-08T03:41:25.223Z,11.40
2017-10-08T03:43:52.858Z,10.27
2017-10-08T03:46:20.461Z,9.97
2017-10-08T03:48:48.114Z,9.30
2017-10-08T03:51:15.742Z,10.30
2017-10-08T03:53:43.397Z,10.53
2017-10-08T03:56:11.009Z,9.80
2017-10-08T03:58:38.650Z,10.17
2017-10-08T04:01:06.305Z,11.33
2017-10-08T04:03:33.991Z,10.50
2017-10-08T04:06:01.616Z,9.63
2017-10-08T04:08:29.258Z,10.00
2017-10-08T04:10:56.880Z,10.10
2017-10-08T04:13:24.628Z,9.13
2017-10-08T04:15:52.242Z,9.40
2017-10-08T04:18:19.886Z,9.83
2017-10-08T04:20:47.494Z,9.13
2017-10-08T04:23:15.159Z,9.17
2017-10-08T04:25:42.767Z,9.50
2017-10-08T04:28:10.407Z,8.70
2017-10-08T04:30:38.019Z,11.13
2017-10-08T04:33:05.698Z,10.50
2017-10-08T04:35:33.338Z,9.30
2017-10-08T04:38:01.009Z,9.83
2017-10-08T04:40:28.621Z,10.60
2017-10-08T04:42:56.276Z,10.57
2017-10-08T04:45:23.881Z,10.97
2017-10-08T04:47:51.538Z,11.07
2017-10-08T04:50:19.151Z,8.93
2017-10-08T04:52:46.850Z,10.40
2017-10-08T04:55:14.446Z,9.80
2017-10-08T04:57:42.072Z,10.90
2017-10-08T05:00:09.681Z,11.40
2017-10-08T05:02:37.311Z,10.87
2017-10-08T05:05:04.931Z,11.50
2017-10-08T05:07:32.590Z,10.17
2017-10-08T05:10:00.190Z,10.03
2017-10-08T05:12:28.377Z,10.47
2017-10-08T05:14:56.034Z,12.03
2017-10-08T05:17:23.683Z,11.93
2017-10-08T05:19:51.286Z,15.13
2017-10-08T05:22:18.991Z,12.67
2017-10-08T05:24:46.626Z,11.53
2017-10-08T05:27:14.340Z,11.40
2017-10-08T05:29:41.966Z,10.60
2017-10-08T05:32:09.586Z,11.03
2017-10-08T05:34:37.230Z,11.97
2017-10-08T05:37:04.856Z,11.20
2017-10-08T05:39:32.566Z,11.20
2017-10-08T05:42:00.217Z,11.60
2017-10-08T05:44:27.858Z,12.20
2017-10-08T05:46:55.516Z,13.53
2017-10-08T05:49:23.164Z,15.33
2017-10-08T05:51:50.787Z,12.80
2017-10-08T05:54:18.443Z,11.97
2017-10-08T05:56:46.043Z,13.80
2017-10-08T05:59:13.692Z,13.33
2017-10-08T06:01:41.298Z,13.30
2017-10-08T06:04:08.953Z,12.70
2017-10-08T06:06:36.562Z,12.23
2017-10-08T06:09:04.239Z,11.80
2017-10-08T06:11:31.912Z,13.37
2017-10-08T06:13:59.539Z,11.90
2017-10-08T06:16:27.141Z,12.93
2017-10-08T06:18:54.918Z,14.20
2017-10-08T06:21:22.555Z,14.60
2017-10-08T06:23:50.303Z,13.00
2017-10-08T06:26:17.914Z,14.30
2017-10-08T06:28:45.528Z,12.63
2017-10-08T06:31:13.158Z,12.70
2017-10-08T06:33:40.830Z,13.37
2017-10-08T06:36:08.469Z,12.37
2017-10-08T06:38:36.090Z,12.07
2017-10-08T06:41:03.766Z,11.80
2017-10-08T06:43:31.499Z,13.07
2017-10-08T06:45:59.152Z,10.37
2017-10-08T06:48:26.751Z,11.20
2017-10-08T06:50:54.499Z,10.10
2017-10-08T06:53:22.118Z,10.67
2017-10-08T06:55:49.812Z,12.40
2017-10-08T06:58:17.493Z,12.73
2017-10-08T07:00:45.150Z,11.70
2017-10-08T07:03:12.815Z,12.40
2017-10-08T07:05:40.467Z,13.83
2017-10-08T07:08:08.116Z,11.40
2017-10-08T07:10:35.779Z,11.30
2017-10-08T07:13:03.399Z,10.40
2017-10-08T07:15:31.034Z,11.37
2017-10-08T07:17:58.714Z,10.57
2017-10-08T07:20:26.358Z,9.10
2017-10-08T07:22:53.970Z,8.20
2017-10-08T07:25:21.613Z,7.73
2017-10-08T07:27:49.215Z,7.30
2017-10-08T07:30:16.865Z,7.63
2017-10-08T07:32:44.513Z,6.77
2017-10-08T07:35:12.141Z,8.47
2017-10-08T07:37:39.761Z,7.20
2017-10-08T07:40:07.393Z,9.50
2017-10-08T07:42:35.062Z,9.57
2017-10-08T07:45:02.703Z,7.57
2017-10-08T07:47:30.310Z,7.67
2017-10-08T07:49:57.999Z,6.60
2017-10-08T07:52:25.659Z,5.60
2017-10-08T07:54:53.295Z,5.17
2017-10-08T07:57:20.982Z,5.30
2017-10-08T07:59:48.627Z,4.67
2017-10-08T08:02:16.276Z,3.63
2017-10-08T08:04:43.907Z,3.90
2017-10-08T08:07:11.524Z,4.10
2017-10-08T08:09:39.143Z,3.40
2017-10-08T08:12:06.759Z,2.90
2017-10-08T08:14:34.378Z,2.80
2017-10-08T08:17:02.015Z,3.37
2017-10-08T08:19:29.666Z,4.80
2017-10-08T08:21:57.315Z,4.93
2017-10-08T08:24:24.957Z,5.70
2017-10-08T08:26:52.560Z,5.83
2017-10-08T08:29:20.157Z,8.10
2017-10-08T08:31:47.802Z,6.60
2017-10-08T08:34:15.431Z,6.83
2017-10-08T08:36:43.063Z,8.97
2017-10-08T08:39:10.676Z,7.03
2017-10-08T08:41:38.302Z,5.30
2017-10-08T08:44:05.936Z,4.93
2017-10-08T08:46:33.576Z,5.47
2017-10-08T08:49:01.179Z,4.97
2017-10-08T08:51:28.842Z,4.90
2017-10-08T08:53:56.451Z,5.80
2017-10-08T08:56:24.079Z,11.90
2017-10-08T08:58:51.695Z,4.70
2017-10-08T09:01:19.312Z,5.03
2017-10-08T09:03:46.993Z,5.23
2017-10-08T09:06:14.651Z,4.93
2017-10-08T09:08:42.290Z,5.03
2017-10-08T09:11:09.873Z,4.70
2017-10-08T09:13:37.511Z,5.03
2017-10-08T09:16:05.106Z,4.17
2017-10-08T09:18:32.743Z,3.80
2017-10-08T09:21:00.337Z,6.40
2017-10-08T09:23:27.986Z,3.63
2017-10-08T09:25:55.631Z,4.47
2017-10-08T09:28:23.260Z,7.37
2017-10-08T09:30:50.883Z,4.10
2017-10-08T09:33:18.578Z,3.63
2017-10-08T09:35:46.182Z,4.30
2017-10-08T09:38:13.921Z,3.63
2017-10-08T09:40:41.579Z,4.57
2017-10-08T09:43:09.183Z,3.80
2017-10-08T09:45:36.838Z,3.53
2017-10-08T09:48:04.513Z,2.70
2017-10-08T09:50:32.131Z,3.17
2017-10-08T09:52:59.747Z,3.80
2017-10-08T09:55:27.370Z,3.37
2017-10-08T09:57:55.035Z,2.90
2017-10-08T10:00:22.664Z,3.93
2017-10-08T10:02:50.274Z,3.50
2017-10-08T10:05:17.895Z,3.00
2017-10-08T10:07:45.629Z,3.27
2017-10-08T10:10:13.255Z,3.10
2017-10-08T10:12:40.848Z,2.97
2017-10-08T10:15:08.494Z,2.93
2017-10-08T10:17:36.202Z,2.83
2017-10-08T10:20:03.834Z,3.13
2017-10-08T10:22:31.466Z,2.30
2017-10-08T10:24:59.117Z,2.60
2017-10-08T10:27:26.706Z,2.90
2017-10-08T10:29:59.906Z,3.10
2017-10-08T10:32:27.552Z,2.07
2017-10-08T10:34:55.194Z,2.87
2017-10-08T10:37:22.785Z,1.97
2017-10-08T10:39:50.414Z,1.83
2017-10-08T10:42:18.010Z,2.10
2017-10-08T10:44:45.639Z,1.80
2017-10-08T10:47:14.168Z,1.90
2017-10-08T10:49:41.800Z,2.37
2017-10-08T10:52:09.388Z,1.93
2017-10-08T10:54:37.035Z,2.27
2017-10-08T10:57:04.662Z,2.10
2017-10-08T10:59:32.312Z,1.50
2017-10-08T11:01:59.922Z,1.40
2017-10-08T11:04:27.553Z,2.80
2017-10-08T11:06:55.155Z,1.53
2017-10-08T11:09:22.864Z,1.47
2017-10-08T11:11:51.011Z,2.27
2017-10-08T11:14:18.691Z,2.00
2017-10-08T11:16:46.371Z,1.57
2017-10-08T11:19:14.727Z,1.07
2017-10-08T11:21:42.538Z,1.77
2017-10-08T11:24:10.160Z,1.27
2017-10-08T11:26:37.894Z,1.40
2017-10-08T11:29:05.514Z,1.50
2017-10-08T11:31:33.173Z,1.20
2017-10-08T11:34:00.808Z,1.53
2017-10-08T11:36:28.437Z,1.30
2017-10-08T11:38:56.101Z,1.53
2017-10-08T11:41:23.718Z,1.57
2017-10-08T11:43:52.084Z,1.17
2017-10-08T11:46:20.050Z,1.30
2017-10-08T11:48:49.348Z,1.10
2017-10-08T11:51:17.727Z,1.03
2017-10-08T11:53:45.848Z,1.20
2017-10-08T11:56:13.971Z,3.03
2017-10-08T11:58:41.897Z,1.30
2017-10-08T12:01:15.336Z,1.63
2017-10-08T12:03:43.196Z,1.60
2017-10-08T12:06:14.752Z,1.33
2017-10-08T12:08:43.536Z,1.10
2017-10-08T12:13:44.443Z,2.40
2017-10-08T12:16:12.156Z,1.40
2017-10-08T12:18:40.644Z,1.50
2017-10-08T12:21:08.440Z,2.10
2017-10-08T12:23:36.370Z,1.30
2017-10-08T12:26:08.849Z,1.10
2017-10-08T12:28:36.716Z,1.20
2017-10-08T12:31:04.718Z,1.40
2017-10-08T12:33:39.273Z,2.10
2017-10-08T12:39:23.060Z,1.67
2017-10-08T12:41:50.824Z,1.57
2017-10-08T12:44:18.565Z,1.33
2017-10-08T12:46:46.185Z,2.27
2017-10-08T12:49:13.833Z,2.80
2017-10-08T12:51:41.458Z,1.20
2017-10-08T12:54:09.112Z,1.30
2017-10-08T12:56:36.731Z,2.60
2017-10-08T12:59:04.370Z,1.63
2017-10-08T13:01:32.028Z,1.37
2017-10-08T13:03:59.654Z,2.10
2017-10-08T13:06:27.284Z,1.70
2017-10-08T13:08:54.950Z,1.53
2017-10-08T13:13:56.540Z,2.00
2017-10-08T13:16:24.146Z,1.40
2017-10-08T13:18:51.831Z,1.50
2017-10-08T13:21:19.460Z,1.70
2017-10-08T13:23:47.071Z,1.13
2017-10-08T13:26:14.708Z,1.63
2017-10-08T13:28:42.301Z,1.60
2017-10-08T13:31:09.932Z,1.20
2017-10-08T13:33:37.528Z,1.60
2017-10-08T13:36:05.151Z,1.20
2017-10-08T13:38:32.766Z,1.47
2017-10-08T13:41:00.415Z,1.70
2017-10-08T13:43:28.014Z,1.40
2017-10-08T13:45:55.683Z,2.33
2017-10-08T13:48:23.287Z,1.37
2017-10-08T13:50:50.918Z,1.47
2017-10-08T13:53:18.548Z,1.50
2017-10-08T13:55:46.172Z,1.93
2017-10-08T13:58:13.783Z,2.23
2017-10-08T14:00:41.570Z,2.17
2017-10-08T14:03:09.171Z,1.90
2017-10-08T14:05:36.797Z,1.90
2017-10-08T14:08:04.479Z,2.10
2017-10-08T14:10:32.158Z,2.63
2017-10-08T14:12:59.760Z,1.30
2017-10-08T14:15:27.399Z,2.37
2017-10-08T14:17:55.022Z,1.27
2017-10-08T14:20:22.670Z,1.60
2017-10-08T14:22:50.286Z,1.90
2017-10-08T14:25:17.929Z,1.70
2017-10-08T14:27:45.539Z,2.23
2017-10-08T14:30:13.285Z,2.40
2017-10-08T14:32:40.903Z,2.50
2017-10-08T14:35:08.532Z,2.03
2017-10-08T14:37:36.118Z,1.57
2017-10-08T14:40:03.783Z,1.37
2017-10-08T14:42:31.386Z,1.73
2017-10-08T14:44:59.028Z,1.60
2017-10-08T14:47:26.627Z,1.77
2017-10-08T14:49:54.250Z,2.03
2017-10-08T14:52:21.866Z,1.37
2017-10-08T14:54:49.490Z,1.87
2017-10-08T14:57:17.082Z,1.87
2017-10-08T14:59:44.719Z,1.80
2017-10-08T15:02:12.331Z,1.93
2017-10-08T15:04:39.974Z,2.57
2017-10-08T15:07:07.588Z,2.30
2017-10-08T15:09:35.243Z,2.70
2017-10-08T15:12:02.848Z,2.43
2017-10-08T15:14:30.552Z,4.17
2017-10-08T15:16:58.174Z,3.00
2017-10-08T15:19:25.818Z,2.60
2017-10-08T15:21:53.415Z,4.70
2017-10-08T15:24:21.227Z,2.03
2017-10-08T15:26:48.817Z,1.77
2017-10-08T15:29:16.463Z,2.30
2017-10-08T15:31:44.346Z,3.43
2017-10-08T15:34:12.145Z,2.47
2017-10-08T15:36:39.900Z,1.60
2017-10-08T15:39:07.506Z,1.70
2017-10-08T15:41:35.141Z,2.60
2017-10-08T15:44:02.757Z,2.23
2017-10-08T15:46:30.365Z,2.83
2017-10-08T15:48:57.973Z,2.60
2017-10-08T15:51:25.661Z,2.77
2017-10-08T15:53:53.315Z,3.80
2017-10-08T15:56:20.939Z,9.80
2017-10-08T15:58:48.529Z,7.50
2017-10-08T16:01:16.165Z,3.60
2017-10-08T16:03:43.754Z,3.13
2017-10-08T16:06:11.403Z,3.00
2017-10-08T16:08:39.034Z,2.53
2017-10-08T16:11:06.698Z,1.77
2017-10-08T16:13:34.300Z,1.93
2017-10-08T16:16:01.922Z,1.40
2017-10-08T16:18:29.598Z,2.00
2017-10-08T16:20:57.288Z,1.70
2017-10-08T16:23:24.915Z,2.63
2017-10-08T16:25:52.511Z,2.00
2017-10-08T16:28:20.199Z,2.17
2017-10-08T16:30:47.886Z,2.30
2017-10-08T16:33:15.571Z,2.60
2017-10-08T16:35:43.194Z,3.20
2017-10-08T16:38:10.854Z,3.20
2017-10-08T16:40:38.497Z,3.30
2017-10-08T16:43:06.168Z,4.20
2017-10-08T16:45:33.772Z,4.67
2017-10-08T16:48:01.416Z,14.73
2017-10-08T16:50:29.022Z,6.13
2017-10-08T16:52:56.666Z,4.87
2017-10-08T16:55:24.283Z,3.70
2017-10-08T16:57:51.931Z,3.30
2017-10-08T17:00:19.548Z,2.07
2017-10-08T17:02:47.361Z,2.37
2017-10-08T17:05:15.098Z,3.10
2017-10-08T17:07:42.775Z,4.97
2017-10-08T17:10:10.423Z,11.00
2017-10-08T17:12:38.069Z,6.87
2017-10-08T17:15:05.678Z,4.67
2017-10-08T17:17:33.321Z,3.67
2017-10-08T17:20:00.923Z,3.80
2017-10-08T17:22:28.636Z,4.20
2017-10-08T17:24:56.273Z,4.20
2017-10-08T17:27:23.951Z,5.30
2017-10-08T17:29:51.670Z,4.43
2017-10-08T17:32:19.302Z,4.20
2017-10-08T17:34:46.924Z,3.83
2017-10-08T17:37:14.573Z,4.30
2017-10-08T17:39:42.360Z,2.80
2017-10-08T17:42:10.002Z,2.57
2017-10-08T17:44:37.583Z,3.40
2017-10-08T17:47:05.379Z,2.50
2017-10-08T17:49:32.996Z,2.50
2017-10-08T17:52:00.650Z,4.43
2017-10-08T17:54:28.255Z,4.30
2017-10-08T17:56:55.879Z,3.00
2017-10-08T17:59:23.491Z,2.60
2017-10-08T18:01:51.300Z,3.20
2017-10-08T18:04:19.010Z,2.57
2017-10-08T18:06:46.656Z,3.90
2017-10-08T18:09:14.249Z,32.37
2017-10-08T18:11:42.036Z,3.70
2017-10-08T18:14:09.642Z,3.27
2017-10-08T18:16:37.339Z,4.13
2017-10-08T18:19:04.931Z,3.27
2017-10-08T18:21:32.601Z,2.47
2017-10-08T18:24:00.219Z,2.80
2017-10-08T18:26:27.854Z,1.87
2017-10-08T18:28:55.470Z,2.20
2017-10-08T18:31:23.120Z,2.10
2017-10-08T18:33:50.719Z,2.23
2017-10-08T18:36:18.387Z,9.53
2017-10-08T18:38:45.970Z,3.07
2017-10-08T18:41:13.624Z,2.63
2017-10-08T18:43:41.235Z,2.53
2017-10-08T18:46:08.862Z,3.10
2017-10-08T18:48:36.578Z,2.87
2017-10-08T18:51:04.179Z,2.30
2017-10-08T18:53:31.843Z,2.60
2017-10-08T18:55:59.470Z,2.27
2017-10-08T18:58:27.192Z,4.53
2017-10-08T19:00:54.799Z,8.63
2017-10-08T19:03:22.496Z,3.30
2017-10-08T19:05:50.114Z,3.03
2017-10-08T19:08:17.797Z,2.70
2017-10-08T19:10:45.432Z,3.00
2017-10-08T19:13:13.084Z,2.53
2017-10-08T19:15:40.742Z,1.80
2017-10-08T19:18:08.409Z,3.13
2017-10-08T19:20:36.034Z,3.50
2017-10-08T19:23:03.720Z,2.90
2017-10-08T19:25:31.463Z,2.90
2017-10-08T19:27:59.307Z,2.80
2017-10-08T19:30:26.938Z,2.87
2017-10-08T19:32:54.580Z,2.57
2017-10-08T19:35:22.325Z,3.20
2017-10-08T19:37:49.990Z,2.97
2017-10-08T19:40:17.602Z,47.07
2017-10-08T19:42:45.259Z,26.10
2017-10-08T19:45:12.923Z,20.50
2017-10-08T19:47:40.591Z,7.83
2017-10-08T19:50:08.210Z,4.07
2017-10-08T19:52:35.820Z,4.13
2017-10-08T19:55:03.470Z,4.50
2017-10-08T19:57:31.087Z,3.80
2017-10-08T19:59:58.716Z,4.03
2017-10-08T20:02:26.320Z,3.70
2017-10-08T20:04:53.957Z,3.50
2017-10-08T20:07:21.597Z,4.73
2017-10-08T20:09:49.268Z,3.70
2017-10-08T20:12:16.898Z,2.80
2017-10-08T20:14:44.530Z,3.57
2017-10-08T20:17:12.167Z,3.43
2017-10-08T20:19:39.790Z,3.70
2017-10-08T20:22:07.419Z,3.20
2017-10-08T20:24:35.146Z,3.70
2017-10-08T20:27:02.798Z,5.70
2017-10-08T20:29:30.590Z,3.60
2017-10-08T20:31:58.321Z,3.60
2017-10-08T20:34:27.650Z,3.87
2017-10-08T20:36:55.399Z,3.00
2017-10-08T20:39:23.162Z,3.97
2017-10-08T20:41:50.767Z,4.70
2017-10-08T20:44:18.479Z,4.43
2017-10-08T20:46:46.111Z,4.17
2017-10-08T20:49:14.028Z,3.80
2017-10-08T20:51:41.698Z,3.13
2017-10-08T20:54:09.387Z,4.70
2017-10-08T20:56:38.250Z,3.80
2017-10-08T20:59:05.949Z,4.33
2017-10-08T21:01:33.630Z,4.17
2017-10-08T21:04:01.238Z,4.47
2017-10-08T21:06:28.922Z,3.90
2017-10-08T21:08:56.527Z,3.63
2017-10-08T21:11:24.159Z,3.70
2017-10-08T21:13:51.757Z,3.03
2017-10-08T21:16:19.426Z,2.83
2017-10-08T21:18:47.022Z,3.07
2017-10-08T21:21:14.682Z,3.50
2017-10-08T21:23:42.372Z,3.17
2017-10-08T21:26:10.019Z,2.73
2017-10-08T21:28:37.614Z,3.20
2017-10-08T21:31:05.242Z,2.80
2017-10-08T21:33:32.847Z,2.87
2017-10-08T21:36:00.477Z,2.80
2017-10-08T21:38:28.055Z,2.60
2017-10-08T21:40:55.689Z,2.80
2017-10-08T21:43:23.282Z,3.30
2017-10-08T21:45:50.920Z,4.27
2017-10-08T21:48:18.544Z,4.10
2017-10-08T21:50:46.187Z,3.80
2017-10-08T21:53:13.768Z,4.70
2017-10-08T21:55:41.414Z,4.13
2017-10-08T21:58:09.049Z,4.60
2017-10-08T22:00:36.888Z,4.20
2017-10-08T22:03:04.526Z,3.80
2017-10-08T22:05:32.216Z,4.10
2017-10-08T22:07:59.838Z,4.90
2017-10-08T22:10:27.485Z,6.07
2017-10-08T22:12:55.102Z,5.70
2017-10-08T22:15:22.787Z,5.37
2017-10-08T22:17:50.414Z,5.60
2017-10-08T22:20:18.120Z,4.17
2017-10-08T22:22:45.777Z,5.37
2017-10-08T22:25:13.385Z,5.50
2017-10-08T22:27:41.161Z,5.53
2017-10-08T22:30:08.812Z,6.60
2017-10-08T22:32:36.469Z,6.27
2017-10-08T22:35:04.107Z,5.77
2017-10-08T22:37:31.703Z,6.53
2017-10-08T22:39:59.299Z,4.60
2017-10-08T22:42:26.947Z,5.57
2017-10-08T22:44:54.588Z,4.60
2017-10-08T22:47:22.231Z,5.73
2017-10-08T22:49:49.878Z,4.53
2017-10-08T22:52:17.486Z,5.90
2017-10-08T22:54:45.134Z,5.70
2017-10-08T22:57:12.751Z,6.10
2017-10-08T22:59:40.450Z,5.70
2017-10-08T23:02:08.082Z,6.30
2017-10-08T23:04:35.694Z,5.30
2017-10-08T23:07:03.314Z,5.83
2017-10-08T23:09:30.976Z,6.20
2017-10-08T23:11:58.576Z,6.20
2017-10-08T23:14:26.169Z,6.10
2017-10-08T23:16:53.795Z,5.47
2017-10-08T23:19:21.399Z,5.77
2017-10-08T23:21:49.055Z,5.93
2017-10-08T23:24:16.677Z,5.87
2017-10-08T23:26:44.342Z,6.20
2017-10-08T23:29:11.955Z,6.47
2017-10-08T23:31:39.809Z,5.40
2017-10-08T23:34:07.425Z,5.80
2017-10-08T23:36:35.064Z,6.27
2017-10-08T23:39:02.678Z,6.43
2017-10-08T23:41:30.291Z,7.03
2017-10-08T23:43:57.878Z,6.30
2017-10-08T23:46:25.546Z,6.10
2017-10-08T23:48:53.138Z,6.33
2017-10-08T23:51:20.766Z,6.07
2017-10-08T23:53:48.383Z,6.63
2017-10-08T23:56:16.019Z,5.37
2017-10-08T23:58:43.611Z,5.53
